sensor_id;sensor_type;location;lat;lon;timestamp;P1;durP1;ratioP1;P2;durP2;ratioP2
14883;SDS011;7534;50.762;7.000;2024-01-30T00:02:18;14.97;;;12.40;;
14883;SDS011;7534;50.762;7.000;2024-01-30T00:04:44;15.47;;;13.00;;
14883;SDS011;7534;50.762;7.000;2024-01-30T00:07:10;15.37;;;12.70;;
14883;SDS011;7534;50.762;7.000;2024-01-30T00:09:35;14.60;;;12.57;;
14883;SDS011;7534;50.762;7.000;2024-01-30T00:12:04;14.77;;;12.97;;
14883;SDS011;7534;50.762;7.000;2024-01-30T00:14:31;16.80;;;12.87;;
14883;SDS011;7534;50.762;7.000;2024-01-30T00:16:57;15.47;;;12.20;;
14883;SDS011;7534;50.762;7.000;2024-01-30T00:19:22;14.30;;;11.83;;
14883;SDS011;7534;50.762;7.000;2024-01-30T00:21:48;15.57;;;12.03;;
14883;SDS011;7534;50.762;7.000;2024-01-30T00:24:14;15.73;;;12.77;;
14883;SDS011;7534;50.762;7.000;2024-01-30T00:26:41;14.00;;;12.13;;
14883;SDS011;7534;50.762;7.000;2024-01-30T00:29:06;14.50;;;12.10;;
14883;SDS011;7534;50.762;7.000;2024-01-30T00:31:32;13.93;;;11.70;;
14883;SDS011;7534;50.762;7.000;2024-01-30T00:33:58;15.93;;;12.00;;
14883;SDS011;7534;50.762;7.000;2024-01-30T00:36:24;15.97;;;11.50;;
14883;SDS011;7534;50.762;7.000;2024-01-30T00:38:49;15.13;;;11.87;;
14883;SDS011;7534;50.762;7.000;2024-01-30T00:41:17;15.13;;;12.03;;
14883;SDS011;7534;50.762;7.000;2024-01-30T00:43:44;15.50;;;12.60;;
14883;SDS011;7534;50.762;7.000;2024-01-30T00:46:09;14.47;;;11.87;;
14883;SDS011;7534;50.762;7.000;2024-01-30T00:48:35;14.63;;;11.77;;
14883;SDS011;7534;50.762;7.000;2024-01-30T00:51:01;14.23;;;12.30;;
14883;SDS011;7534;50.762;7.000;2024-01-30T00:53:27;12.37;;;10.70;;
14883;SDS011;7534;50.762;7.000;2024-01-30T00:55:53;13.40;;;12.00;;
14883;SDS011;7534;50.762;7.000;2024-01-30T00:58:18;14.60;;;12.13;;
14883;SDS011;7534;50.762;7.000;2024-01-30T01:00:44;14.90;;;12.37;;
14883;SDS011;7534;50.762;7.000;2024-01-30T01:03:10;15.87;;;13.20;;
14883;SDS011;7534;50.762;7.000;2024-01-30T01:05:36;16.83;;;12.80;;
14883;SDS011;7534;50.762;7.000;2024-01-30T01:08:02;16.87;;;13.67;;
14883;SDS011;7534;50.762;7.000;2024-01-30T01:10:27;16.53;;;12.63;;
14883;SDS011;7534;50.762;7.000;2024-01-30T01:12:53;16.03;;;12.10;;
14883;SDS011;7534;50.762;7.000;2024-01-30T01:15:19;13.50;;;11.23;;
14883;SDS011;7534;50.762;7.000;2024-01-30T01:17:45;16.73;;;12.80;;
14883;SDS011;7534;50.762;7.000;2024-01-30T01:20:11;16.80;;;12.93;;
14883;SDS011;7534;50.762;7.000;2024-01-30T01:22:37;16.17;;;12.43;;
14883;SDS011;7534;50.762;7.000;2024-01-30T01:25:04;14.87;;;11.90;;
14883;SDS011;7534;50.762;7.000;2024-01-30T01:27:33;13.37;;;11.73;;
14883;SDS011;7534;50.762;7.000;2024-01-30T01:29:59;16.03;;;11.87;;
14883;SDS011;7534;50.762;7.000;2024-01-30T01:32:25;13.97;;;11.70;;
14883;SDS011;7534;50.762;7.000;2024-01-30T01:34:51;15.63;;;13.93;;
14883;SDS011;7534;50.762;7.000;2024-01-30T01:37:17;27.93;;;21.83;;
14883;SDS011;7534;50.762;7.000;2024-01-30T01:39:43;19.07;;;15.77;;
14883;SDS011;7534;50.762;7.000;2024-01-30T01:42:08;15.73;;;12.90;;
14883;SDS011;7534;50.762;7.000;2024-01-30T01:44:34;14.53;;;11.50;;
14883;SDS011;7534;50.762;7.000;2024-01-30T01:47:00;14.13;;;12.23;;
14883;SDS011;7534;50.762;7.000;2024-01-30T01:49:26;13.47;;;11.23;;
14883;SDS011;7534;50.762;7.000;2024-01-30T01:51:53;12.27;;;10.87;;
14883;SDS011;7534;50.762;7.000;2024-01-30T01:54:21;15.47;;;11.33;;
14883;SDS011;7534;50.762;7.000;2024-01-30T01:56:49;13.23;;;10.90;;
14883;SDS011;7534;50.762;7.000;2024-01-30T01:59:16;15.60;;;11.00;;
14883;SDS011;7534;50.762;7.000;2024-01-30T02:01:43;14.03;;;11.57;;
14883;SDS011;7534;50.762;7.000;2024-01-30T02:04:10;14.93;;;11.47;;
14883;SDS011;7534;50.762;7.000;2024-01-30T02:06:36;13.00;;;11.10;;
14883;SDS011;7534;50.762;7.000;2024-01-30T02:09:03;14.67;;;11.73;;
14883;SDS011;7534;50.762;7.000;2024-01-30T02:11:29;14.30;;;11.77;;
14883;SDS011;7534;50.762;7.000;2024-01-30T02:13:56;16.80;;;11.37;;
14883;SDS011;7534;50.762;7.000;2024-01-30T02:16:26;14.43;;;11.90;;
14883;SDS011;7534;50.762;7.000;2024-01-30T02:18:53;14.47;;;11.13;;
14883;SDS011;7534;50.762;7.000;2024-01-30T02:21:18;14.13;;;12.23;;
14883;SDS011;7534;50.762;7.000;2024-01-30T02:23:45;14.90;;;12.97;;
14883;SDS011;7534;50.762;7.000;2024-01-30T02:26:12;16.73;;;13.67;;
14883;SDS011;7534;50.762;7.000;2024-01-30T02:28:38;16.90;;;13.23;;
14883;SDS011;7534;50.762;7.000;2024-01-30T02:31:04;15.60;;;12.27;;
14883;SDS011;7534;50.762;7.000;2024-01-30T02:33:30;16.20;;;13.30;;
14883;SDS011;7534;50.762;7.000;2024-01-30T02:35:57;17.77;;;12.43;;
14883;SDS011;7534;50.762;7.000;2024-01-30T02:38:23;15.60;;;12.83;;
14883;SDS011;7534;50.762;7.000;2024-01-30T02:40:50;14.83;;;12.53;;
14883;SDS011;7534;50.762;7.000;2024-01-30T02:43:15;16.00;;;12.50;;
14883;SDS011;7534;50.762;7.000;2024-01-30T02:45:42;15.90;;;11.83;;
14883;SDS011;7534;50.762;7.000;2024-01-30T02:48:08;14.73;;;12.03;;
14883;SDS011;7534;50.762;7.000;2024-01-30T02:50:33;13.97;;;12.03;;
14883;SDS011;7534;50.762;7.000;2024-01-30T02:52:59;14.27;;;11.27;;
14883;SDS011;7534;50.762;7.000;2024-01-30T02:55:25;14.97;;;12.20;;
14883;SDS011;7534;50.762;7.000;2024-01-30T02:57:51;15.00;;;11.83;;
14883;SDS011;7534;50.762;7.000;2024-01-30T03:00:17;13.53;;;11.70;;
14883;SDS011;7534;50.762;7.000;2024-01-30T03:02:44;13.47;;;11.20;;
14883;SDS011;7534;50.762;7.000;2024-01-30T03:05:11;12.30;;;10.80;;
14883;SDS011;7534;50.762;7.000;2024-01-30T03:07:37;13.03;;;10.97;;
14883;SDS011;7534;50.762;7.000;2024-01-30T03:10:06;12.20;;;10.90;;
14883;SDS011;7534;50.762;7.000;2024-01-30T03:12:33;14.10;;;11.43;;
14883;SDS011;7534;50.762;7.000;2024-01-30T03:14:58;12.90;;;10.00;;
14883;SDS011;7534;50.762;7.000;2024-01-30T03:17:25;13.53;;;10.50;;
14883;SDS011;7534;50.762;7.000;2024-01-30T03:19:51;12.60;;;10.17;;
14883;SDS011;7534;50.762;7.000;2024-01-30T03:22:17;12.27;;;10.60;;
14883;SDS011;7534;50.762;7.000;2024-01-30T03:24:42;12.60;;;9.67;;
14883;SDS011;7534;50.762;7.000;2024-01-30T03:27:08;12.93;;;11.00;;
14883;SDS011;7534;50.762;7.000;2024-01-30T03:29:34;13.33;;;10.80;;
14883;SDS011;7534;50.762;7.000;2024-01-30T03:32:00;12.97;;;10.60;;
14883;SDS011;7534;50.762;7.000;2024-01-30T03:34:26;12.33;;;10.50;;
14883;SDS011;7534;50.762;7.000;2024-01-30T03:36:51;11.97;;;10.43;;
14883;SDS011;7534;50.762;7.000;2024-01-30T03:39:17;12.77;;;9.97;;
14883;SDS011;7534;50.762;7.000;2024-01-30T03:41:43;14.10;;;10.50;;
14883;SDS011;7534;50.762;7.000;2024-01-30T03:44:09;13.97;;;10.77;;
14883;SDS011;7534;50.762;7.000;2024-01-30T03:46:38;11.53;;;10.07;;
14883;SDS011;7534;50.762;7.000;2024-01-30T03:49:04;13.10;;;10.40;;
14883;SDS011;7534;50.762;7.000;2024-01-30T03:51:30;13.90;;;10.73;;
14883;SDS011;7534;50.762;7.000;2024-01-30T03:53:55;14.37;;;10.70;;
14883;SDS011;7534;50.762;7.000;2024-01-30T03:56:21;13.07;;;10.17;;
14883;SDS011;7534;50.762;7.000;2024-01-30T03:58:47;13.77;;;10.87;;
14883;SDS011;7534;50.762;7.000;2024-01-30T04:01:13;14.87;;;11.03;;
14883;SDS011;7534;50.762;7.000;2024-01-30T04:03:43;13.30;;;9.80;;
14883;SDS011;7534;50.762;7.000;2024-01-30T04:06:09;11.17;;;10.03;;
14883;SDS011;7534;50.762;7.000;2024-01-30T04:08:35;11.27;;;10.07;;
14883;SDS011;7534;50.762;7.000;2024-01-30T04:11:05;12.00;;;9.70;;
14883;SDS011;7534;50.762;7.000;2024-01-30T04:13:31;11.57;;;10.00;;
14883;SDS011;7534;50.762;7.000;2024-01-30T04:16:01;13.27;;;11.23;;
14883;SDS011;7534;50.762;7.000;2024-01-30T04:18:27;12.73;;;11.07;;
14883;SDS011;7534;50.762;7.000;2024-01-30T04:20:53;13.07;;;11.00;;
14883;SDS011;7534;50.762;7.000;2024-01-30T04:23:19;13.63;;;10.43;;
14883;SDS011;7534;50.762;7.000;2024-01-30T04:25:45;11.93;;;10.33;;
14883;SDS011;7534;50.762;7.000;2024-01-30T04:28:11;13.27;;;10.03;;
14883;SDS011;7534;50.762;7.000;2024-01-30T04:30:37;13.60;;;10.73;;
14883;SDS011;7534;50.762;7.000;2024-01-30T04:33:03;13.57;;;10.87;;
14883;SDS011;7534;50.762;7.000;2024-01-30T04:35:29;12.87;;;10.80;;
14883;SDS011;7534;50.762;7.000;2024-01-30T04:37:55;12.70;;;10.77;;
14883;SDS011;7534;50.762;7.000;2024-01-30T04:40:21;13.63;;;10.43;;
14883;SDS011;7534;50.762;7.000;2024-01-30T04:42:47;13.63;;;10.83;;
14883;SDS011;7534;50.762;7.000;2024-01-30T04:45:12;13.43;;;11.33;;
14883;SDS011;7534;50.762;7.000;2024-01-30T04:47:38;13.30;;;10.43;;
14883;SDS011;7534;50.762;7.000;2024-01-30T04:50:04;13.63;;;10.97;;
14883;SDS011;7534;50.762;7.000;2024-01-30T04:52:34;13.27;;;10.70;;
14883;SDS011;7534;50.762;7.000;2024-01-30T04:55:00;12.77;;;11.33;;
14883;SDS011;7534;50.762;7.000;2024-01-30T04:57:26;14.10;;;11.40;;
14883;SDS011;7534;50.762;7.000;2024-01-30T04:59:52;11.77;;;10.57;;
14883;SDS011;7534;50.762;7.000;2024-01-30T05:02:18;12.30;;;11.00;;
14883;SDS011;7534;50.762;7.000;2024-01-30T05:04:44;12.13;;;10.70;;
14883;SDS011;7534;50.762;7.000;2024-01-30T05:07:10;13.03;;;10.73;;
14883;SDS011;7534;50.762;7.000;2024-01-30T05:09:35;14.13;;;10.90;;
14883;SDS011;7534;50.762;7.000;2024-01-30T05:12:01;15.27;;;11.20;;
14883;SDS011;7534;50.762;7.000;2024-01-30T05:14:27;13.00;;;10.23;;
14883;SDS011;7534;50.762;7.000;2024-01-30T05:16:53;13.47;;;11.50;;
14883;SDS011;7534;50.762;7.000;2024-01-30T05:19:19;11.33;;;10.20;;
14883;SDS011;7534;50.762;7.000;2024-01-30T05:21:45;13.97;;;10.43;;
14883;SDS011;7534;50.762;7.000;2024-01-30T05:24:11;13.80;;;11.37;;
14883;SDS011;7534;50.762;7.000;2024-01-30T05:26:36;14.20;;;11.77;;
14883;SDS011;7534;50.762;7.000;2024-01-30T05:29:02;13.63;;;11.90;;
14883;SDS011;7534;50.762;7.000;2024-01-30T05:31:28;14.73;;;13.23;;
14883;SDS011;7534;50.762;7.000;2024-01-30T05:33:54;17.23;;;13.43;;
14883;SDS011;7534;50.762;7.000;2024-01-30T05:36:20;15.00;;;12.50;;
14883;SDS011;7534;50.762;7.000;2024-01-30T05:38:46;19.80;;;13.20;;
14883;SDS011;7534;50.762;7.000;2024-01-30T05:41:12;15.43;;;12.83;;
14883;SDS011;7534;50.762;7.000;2024-01-30T05:43:40;16.97;;;12.83;;
14883;SDS011;7534;50.762;7.000;2024-01-30T05:46:06;18.07;;;13.83;;
14883;SDS011;7534;50.762;7.000;2024-01-30T05:48:32;19.63;;;14.57;;
14883;SDS011;7534;50.762;7.000;2024-01-30T05:50:58;18.50;;;14.33;;
14883;SDS011;7534;50.762;7.000;2024-01-30T05:53:24;14.87;;;12.67;;
14883;SDS011;7534;50.762;7.000;2024-01-30T05:55:50;14.37;;;11.60;;
14883;SDS011;7534;50.762;7.000;2024-01-30T05:58:16;14.67;;;11.63;;
14883;SDS011;7534;50.762;7.000;2024-01-30T06:00:42;14.03;;;12.33;;
14883;SDS011;7534;50.762;7.000;2024-01-30T06:03:07;13.83;;;11.63;;
14883;SDS011;7534;50.762;7.000;2024-01-30T06:05:33;13.90;;;12.03;;
14883;SDS011;7534;50.762;7.000;2024-01-30T06:07:59;15.03;;;11.97;;
14883;SDS011;7534;50.762;7.000;2024-01-30T06:10:24;15.53;;;11.70;;
14883;SDS011;7534;50.762;7.000;2024-01-30T06:12:50;15.60;;;13.30;;
14883;SDS011;7534;50.762;7.000;2024-01-30T06:15:16;14.03;;;12.07;;
14883;SDS011;7534;50.762;7.000;2024-01-30T06:17:42;14.80;;;12.27;;
14883;SDS011;7534;50.762;7.000;2024-01-30T06:20:07;15.93;;;11.90;;
14883;SDS011;7534;50.762;7.000;2024-01-30T06:22:33;15.57;;;12.30;;
14883;SDS011;7534;50.762;7.000;2024-01-30T06:25:00;17.03;;;11.97;;
14883;SDS011;7534;50.762;7.000;2024-01-30T06:27:25;13.30;;;11.80;;
14883;SDS011;7534;50.762;7.000;2024-01-30T06:29:51;16.87;;;12.37;;
14883;SDS011;7534;50.762;7.000;2024-01-30T06:32:17;14.53;;;11.80;;
14883;SDS011;7534;50.762;7.000;2024-01-30T06:34:43;14.97;;;12.23;;
14883;SDS011;7534;50.762;7.000;2024-01-30T06:37:09;15.83;;;12.23;;
14883;SDS011;7534;50.762;7.000;2024-01-30T06:39:35;14.13;;;12.33;;
14883;SDS011;7534;50.762;7.000;2024-01-30T06:42:01;18.20;;;11.77;;
14883;SDS011;7534;50.762;7.000;2024-01-30T06:44:26;13.83;;;11.23;;
14883;SDS011;7534;50.762;7.000;2024-01-30T06:46:53;13.37;;;10.90;;
14883;SDS011;7534;50.762;7.000;2024-01-30T06:49:18;14.20;;;11.70;;
14883;SDS011;7534;50.762;7.000;2024-01-30T06:51:46;14.00;;;12.53;;
14883;SDS011;7534;50.762;7.000;2024-01-30T06:54:12;17.80;;;12.73;;
14883;SDS011;7534;50.762;7.000;2024-01-30T06:56:38;14.93;;;13.40;;
14883;SDS011;7534;50.762;7.000;2024-01-30T06:59:04;16.00;;;12.83;;
14883;SDS011;7534;50.762;7.000;2024-01-30T07:01:30;14.50;;;12.03;;
14883;SDS011;7534;50.762;7.000;2024-01-30T07:03:56;13.43;;;11.60;;
14883;SDS011;7534;50.762;7.000;2024-01-30T07:06:22;12.43;;;11.13;;
14883;SDS011;7534;50.762;7.000;2024-01-30T07:08:51;14.07;;;11.10;;
14883;SDS011;7534;50.762;7.000;2024-01-30T07:11:20;14.80;;;11.30;;
14883;SDS011;7534;50.762;7.000;2024-01-30T07:13:47;14.33;;;12.07;;
14883;SDS011;7534;50.762;7.000;2024-01-30T07:16:14;14.17;;;12.17;;
14883;SDS011;7534;50.762;7.000;2024-01-30T07:18:40;16.80;;;12.83;;
14883;SDS011;7534;50.762;7.000;2024-01-30T07:21:06;17.23;;;14.27;;
14883;SDS011;7534;50.762;7.000;2024-01-30T07:23:31;16.30;;;12.73;;
14883;SDS011;7534;50.762;7.000;2024-01-30T07:25:59;16.60;;;13.37;;
14883;SDS011;7534;50.762;7.000;2024-01-30T07:28:25;14.57;;;12.13;;
14883;SDS011;7534;50.762;7.000;2024-01-30T07:30:50;17.70;;;14.80;;
14883;SDS011;7534;50.762;7.000;2024-01-30T07:33:16;15.70;;;13.83;;
14883;SDS011;7534;50.762;7.000;2024-01-30T07:35:42;18.38;;;16.50;;
14883;SDS011;7534;50.762;7.000;2024-01-30T07:38:08;17.83;;;16.02;;
14883;SDS011;7534;50.762;7.000;2024-01-30T07:40:34;16.67;;;14.97;;
14883;SDS011;7534;50.762;7.000;2024-01-30T07:43:00;14.50;;;12.00;;
14883;SDS011;7534;50.762;7.000;2024-01-30T07:45:27;14.90;;;11.87;;
14883;SDS011;7534;50.762;7.000;2024-01-30T07:47:57;13.95;;;12.60;;
14883;SDS011;7534;50.762;7.000;2024-01-30T07:50:23;15.37;;;12.40;;
14883;SDS011;7534;50.762;7.000;2024-01-30T07:52:48;13.67;;;12.10;;
14883;SDS011;7534;50.762;7.000;2024-01-30T07:55:16;12.53;;;11.23;;
14883;SDS011;7534;50.762;7.000;2024-01-30T07:57:42;14.40;;;12.90;;
14883;SDS011;7534;50.762;7.000;2024-01-30T08:00:08;12.40;;;11.10;;
14883;SDS011;7534;50.762;7.000;2024-01-30T08:02:34;13.87;;;11.20;;
14883;SDS011;7534;50.762;7.000;2024-01-30T08:05:00;12.43;;;10.93;;
14883;SDS011;7534;50.762;7.000;2024-01-30T08:07:29;13.60;;;10.80;;
14883;SDS011;7534;50.762;7.000;2024-01-30T08:09:55;14.50;;;11.53;;
14883;SDS011;7534;50.762;7.000;2024-01-30T08:12:21;16.60;;;12.13;;
14883;SDS011;7534;50.762;7.000;2024-01-30T08:14:47;11.67;;;10.47;;
14883;SDS011;7534;50.762;7.000;2024-01-30T08:17:12;14.73;;;10.83;;
14883;SDS011;7534;50.762;7.000;2024-01-30T08:19:38;13.90;;;10.20;;
14883;SDS011;7534;50.762;7.000;2024-01-30T08:22:04;12.20;;;10.87;;
14883;SDS011;7534;50.762;7.000;2024-01-30T08:24:30;14.83;;;11.93;;
14883;SDS011;7534;50.762;7.000;2024-01-30T08:26:55;12.83;;;11.30;;
14883;SDS011;7534;50.762;7.000;2024-01-30T08:29:23;14.27;;;11.53;;
14883;SDS011;7534;50.762;7.000;2024-01-30T08:31:49;12.57;;;11.23;;
14883;SDS011;7534;50.762;7.000;2024-01-30T08:34:15;14.37;;;11.90;;
14883;SDS011;7534;50.762;7.000;2024-01-30T08:36:40;12.30;;;10.90;;
14883;SDS011;7534;50.762;7.000;2024-01-30T08:39:06;12.60;;;10.00;;
14883;SDS011;7534;50.762;7.000;2024-01-30T08:41:32;15.10;;;10.93;;
14883;SDS011;7534;50.762;7.000;2024-01-30T08:43:57;12.93;;;11.63;;
14883;SDS011;7534;50.762;7.000;2024-01-30T08:46:23;13.30;;;10.40;;
14883;SDS011;7534;50.762;7.000;2024-01-30T08:48:49;10.63;;;9.53;;
14883;SDS011;7534;50.762;7.000;2024-01-30T08:51:15;11.57;;;9.27;;
14883;SDS011;7534;50.762;7.000;2024-01-30T08:53:40;11.63;;;10.43;;
14883;SDS011;7534;50.762;7.000;2024-01-30T08:56:06;10.82;;;9.80;;
14883;SDS011;7534;50.762;7.000;2024-01-30T08:58:32;12.80;;;10.53;;
14883;SDS011;7534;50.762;7.000;2024-01-30T09:00:58;11.33;;;9.83;;
14883;SDS011;7534;50.762;7.000;2024-01-30T09:03:24;10.27;;;9.17;;
14883;SDS011;7534;50.762;7.000;2024-01-30T09:05:50;12.03;;;9.00;;
14883;SDS011;7534;50.762;7.000;2024-01-30T09:08:15;10.10;;;9.10;;
14883;SDS011;7534;50.762;7.000;2024-01-30T09:10:41;10.57;;;9.47;;
14883;SDS011;7534;50.762;7.000;2024-01-30T09:13:07;8.90;;;8.10;;
14883;SDS011;7534;50.762;7.000;2024-01-30T09:15:33;9.00;;;8.10;;
14883;SDS011;7534;50.762;7.000;2024-01-30T09:17:58;8.57;;;7.67;;
14883;SDS011;7534;50.762;7.000;2024-01-30T09:20:24;9.95;;;8.93;;
14883;SDS011;7534;50.762;7.000;2024-01-30T09:22:50;17.73;;;15.77;;
14883;SDS011;7534;50.762;7.000;2024-01-30T09:25:16;14.03;;;11.47;;
14883;SDS011;7534;50.762;7.000;2024-01-30T09:27:43;12.17;;;9.90;;
14883;SDS011;7534;50.762;7.000;2024-01-30T09:30:09;10.40;;;9.07;;
14883;SDS011;7534;50.762;7.000;2024-01-30T09:32:35;8.70;;;7.90;;
14883;SDS011;7534;50.762;7.000;2024-01-30T09:35:01;8.77;;;7.97;;
14883;SDS011;7534;50.762;7.000;2024-01-30T09:37:26;8.48;;;7.68;;
14883;SDS011;7534;50.762;7.000;2024-01-30T09:39:52;11.45;;;7.68;;
14883;SDS011;7534;50.762;7.000;2024-01-30T09:45:02;8.63;;;7.50;;
14883;SDS011;7534;50.762;7.000;2024-01-30T09:47:31;8.82;;;7.80;;
14883;SDS011;7534;50.762;7.000;2024-01-30T09:49:59;7.85;;;7.07;;
14883;SDS011;7534;50.762;7.000;2024-01-30T09:52:26;8.57;;;7.78;;
14883;SDS011;7534;50.762;7.000;2024-01-30T09:54:53;8.52;;;7.50;;
14883;SDS011;7534;50.762;7.000;2024-01-30T09:57:19;8.65;;;7.63;;
14883;SDS011;7534;50.762;7.000;2024-01-30T09:59:46;8.40;;;7.15;;
14883;SDS011;7534;50.762;7.000;2024-01-30T10:02:11;8.70;;;7.25;;
14883;SDS011;7534;50.762;7.000;2024-01-30T10:04:37;8.68;;;7.55;;
14883;SDS011;7534;50.762;7.000;2024-01-30T10:07:03;8.32;;;7.53;;
14883;SDS011;7534;50.762;7.000;2024-01-30T10:09:31;7.82;;;7.05;;
14883;SDS011;7534;50.762;7.000;2024-01-30T10:11:58;8.13;;;7.32;;
14883;SDS011;7534;50.762;7.000;2024-01-30T10:14:24;9.23;;;8.25;;
14883;SDS011;7534;50.762;7.000;2024-01-30T10:16:50;10.52;;;8.15;;
14883;SDS011;7534;50.762;7.000;2024-01-30T10:19:16;9.07;;;7.80;;
14883;SDS011;7534;50.762;7.000;2024-01-30T10:21:41;15.18;;;11.95;;
14883;SDS011;7534;50.762;7.000;2024-01-30T10:24:07;15.50;;;12.52;;
14883;SDS011;7534;50.762;7.000;2024-01-30T10:26:33;13.20;;;9.20;;
14883;SDS011;7534;50.762;7.000;2024-01-30T10:28:59;8.13;;;7.17;;
14883;SDS011;7534;50.762;7.000;2024-01-30T10:31:25;9.47;;;8.10;;
14883;SDS011;7534;50.762;7.000;2024-01-30T10:33:50;8.67;;;7.67;;
14883;SDS011;7534;50.762;7.000;2024-01-30T10:36:17;9.43;;;7.30;;
14883;SDS011;7534;50.762;7.000;2024-01-30T10:38:43;8.47;;;7.00;;
14883;SDS011;7534;50.762;7.000;2024-01-30T10:41:11;9.77;;;7.20;;
14883;SDS011;7534;50.762;7.000;2024-01-30T10:43:40;9.03;;;7.10;;
14883;SDS011;7534;50.762;7.000;2024-01-30T10:46:19;8.53;;;7.07;;
14883;SDS011;7534;50.762;7.000;2024-01-30T10:48:50;9.60;;;6.87;;
14883;SDS011;7534;50.762;7.000;2024-01-30T10:51:23;12.67;;;7.60;;
14883;SDS011;7534;50.762;7.000;2024-01-30T10:53:51;9.03;;;6.90;;
14883;SDS011;7534;50.762;7.000;2024-01-30T10:56:18;10.60;;;7.53;;
14883;SDS011;7534;50.762;7.000;2024-01-30T10:58:47;11.50;;;7.73;;
14883;SDS011;7534;50.762;7.000;2024-01-30T11:01:18;11.13;;;7.30;;
14883;SDS011;7534;50.762;7.000;2024-01-30T11:03:47;9.73;;;6.80;;
14883;SDS011;7534;50.762;7.000;2024-01-30T11:06:18;9.27;;;7.10;;
14883;SDS011;7534;50.762;7.000;2024-01-30T11:08:44;7.50;;;6.80;;
14883;SDS011;7534;50.762;7.000;2024-01-30T11:11:11;10.07;;;7.77;;
14883;SDS011;7534;50.762;7.000;2024-01-30T11:13:37;13.37;;;8.73;;
14883;SDS011;7534;50.762;7.000;2024-01-30T11:16:04;13.97;;;8.63;;
14883;SDS011;7534;50.762;7.000;2024-01-30T11:18:30;13.23;;;8.73;;
14883;SDS011;7534;50.762;7.000;2024-01-30T11:20:58;10.80;;;8.97;;
14883;SDS011;7534;50.762;7.000;2024-01-30T11:23:26;10.47;;;8.57;;
14883;SDS011;7534;50.762;7.000;2024-01-30T11:25:53;11.00;;;7.87;;
14883;SDS011;7534;50.762;7.000;2024-01-30T11:28:21;9.77;;;6.93;;
14883;SDS011;7534;50.762;7.000;2024-01-30T11:30:48;6.57;;;5.93;;
14883;SDS011;7534;50.762;7.000;2024-01-30T11:33:16;7.87;;;6.00;;
14883;SDS011;7534;50.762;7.000;2024-01-30T11:35:57;6.77;;;5.80;;
14883;SDS011;7534;50.762;7.000;2024-01-30T11:38:26;8.00;;;5.50;;
14883;SDS011;7534;50.762;7.000;2024-01-30T11:40:53;7.87;;;5.70;;
14883;SDS011;7534;50.762;7.000;2024-01-30T11:43:21;9.10;;;5.77;;
14883;SDS011;7534;50.762;7.000;2024-01-30T11:45:46;6.33;;;5.13;;
14883;SDS011;7534;50.762;7.000;2024-01-30T11:48:17;7.10;;;5.40;;
14883;SDS011;7534;50.762;7.000;2024-01-30T11:50:49;7.03;;;5.27;;
14883;SDS011;7534;50.762;7.000;2024-01-30T11:53:19;5.57;;;4.97;;
14883;SDS011;7534;50.762;7.000;2024-01-30T11:55:51;6.17;;;5.03;;
14883;SDS011;7534;50.762;7.000;2024-01-30T11:58:17;6.03;;;5.37;;
14883;SDS011;7534;50.762;7.000;2024-01-30T12:00:52;5.90;;;4.50;;
14883;SDS011;7534;50.762;7.000;2024-01-30T12:03:21;6.27;;;5.50;;
14883;SDS011;7534;50.762;7.000;2024-01-30T12:05:47;7.63;;;4.90;;
14883;SDS011;7534;50.762;7.000;2024-01-30T12:08:22;7.73;;;5.10;;
14883;SDS011;7534;50.762;7.000;2024-01-30T12:10:55;6.43;;;4.97;;
14883;SDS011;7534;50.762;7.000;2024-01-30T12:13:24;6.20;;;4.82;;
14883;SDS011;7534;50.762;7.000;2024-01-30T12:15:51;9.23;;;5.20;;
14883;SDS011;7534;50.762;7.000;2024-01-30T12:18:20;11.50;;;5.87;;
14883;SDS011;7534;50.762;7.000;2024-01-30T12:20:45;7.55;;;5.32;;
14883;SDS011;7534;50.762;7.000;2024-01-30T12:23:22;7.18;;;4.70;;
14883;SDS011;7534;50.762;7.000;2024-01-30T12:25:50;6.85;;;4.75;;
14883;SDS011;7534;50.762;7.000;2024-01-30T12:28:17;5.88;;;4.70;;
14883;SDS011;7534;50.762;7.000;2024-01-30T12:30:42;5.90;;;4.47;;
14883;SDS011;7534;50.762;7.000;2024-01-30T12:33:08;6.32;;;5.07;;
14883;SDS011;7534;50.762;7.000;2024-01-30T12:35:35;8.23;;;4.90;;
14883;SDS011;7534;50.762;7.000;2024-01-30T12:38:01;7.45;;;5.10;;
14883;SDS011;7534;50.762;7.000;2024-01-30T12:40:27;6.00;;;5.40;;
14883;SDS011;7534;50.762;7.000;2024-01-30T12:42:53;7.07;;;5.20;;
14883;SDS011;7534;50.762;7.000;2024-01-30T12:45:19;7.53;;;5.13;;
14883;SDS011;7534;50.762;7.000;2024-01-30T12:47:46;6.90;;;4.85;;
14883;SDS011;7534;50.762;7.000;2024-01-30T12:50:13;6.82;;;5.40;;
14883;SDS011;7534;50.762;7.000;2024-01-30T12:52:41;7.20;;;5.37;;
14883;SDS011;7534;50.762;7.000;2024-01-30T12:55:07;6.78;;;5.47;;
14883;SDS011;7534;50.762;7.000;2024-01-30T12:57:33;8.07;;;5.47;;
14883;SDS011;7534;50.762;7.000;2024-01-30T12:59:59;6.37;;;5.47;;
14883;SDS011;7534;50.762;7.000;2024-01-30T13:02:24;6.30;;;5.07;;
14883;SDS011;7534;50.762;7.000;2024-01-30T13:04:51;8.48;;;5.38;;
14883;SDS011;7534;50.762;7.000;2024-01-30T13:07:17;6.75;;;4.95;;
14883;SDS011;7534;50.762;7.000;2024-01-30T13:09:43;6.38;;;4.78;;
14883;SDS011;7534;50.762;7.000;2024-01-30T13:12:09;6.50;;;4.70;;
14883;SDS011;7534;50.762;7.000;2024-01-30T13:14:35;7.88;;;5.35;;
14883;SDS011;7534;50.762;7.000;2024-01-30T13:17:01;5.05;;;4.55;;
14883;SDS011;7534;50.762;7.000;2024-01-30T13:19:26;6.75;;;4.93;;
14883;SDS011;7534;50.762;7.000;2024-01-30T13:21:52;5.70;;;5.07;;
14883;SDS011;7534;50.762;7.000;2024-01-30T13:24:18;8.63;;;5.07;;
14883;SDS011;7534;50.762;7.000;2024-01-30T13:26:46;7.90;;;5.28;;
14883;SDS011;7534;50.762;7.000;2024-01-30T13:29:12;5.35;;;4.68;;
14883;SDS011;7534;50.762;7.000;2024-01-30T13:31:37;6.80;;;5.00;;
14883;SDS011;7534;50.762;7.000;2024-01-30T13:34:04;5.22;;;4.72;;
14883;SDS011;7534;50.762;7.000;2024-01-30T13:36:32;6.10;;;4.63;;
14883;SDS011;7534;50.762;7.000;2024-01-30T13:39:00;6.47;;;5.13;;
14883;SDS011;7534;50.762;7.000;2024-01-30T13:41:26;6.68;;;4.65;;
14883;SDS011;7534;50.762;7.000;2024-01-30T13:43:52;9.10;;;5.85;;
14883;SDS011;7534;50.762;7.000;2024-01-30T13:46:18;7.18;;;5.70;;
14883;SDS011;7534;50.762;7.000;2024-01-30T13:48:44;6.03;;;5.43;;
14883;SDS011;7534;50.762;7.000;2024-01-30T13:51:10;7.47;;;5.97;;
14883;SDS011;7534;50.762;7.000;2024-01-30T13:53:38;9.25;;;6.28;;
14883;SDS011;7534;50.762;7.000;2024-01-30T13:56:03;7.07;;;5.93;;
14883;SDS011;7534;50.762;7.000;2024-01-30T13:58:32;6.47;;;5.82;;
14883;SDS011;7534;50.762;7.000;2024-01-30T14:00:58;7.65;;;5.70;;
14883;SDS011;7534;50.762;7.000;2024-01-30T14:03:24;7.25;;;5.40;;
14883;SDS011;7534;50.762;7.000;2024-01-30T14:05:50;13.15;;;6.18;;
14883;SDS011;7534;50.762;7.000;2024-01-30T14:08:18;9.67;;;6.27;;
14883;SDS011;7534;50.762;7.000;2024-01-30T14:10:46;10.33;;;6.60;;
14883;SDS011;7534;50.762;7.000;2024-01-30T14:13:12;7.63;;;6.00;;
14883;SDS011;7534;50.762;7.000;2024-01-30T14:15:38;10.30;;;6.97;;
14883;SDS011;7534;50.762;7.000;2024-01-30T14:18:04;9.67;;;6.83;;
14883;SDS011;7534;50.762;7.000;2024-01-30T14:20:33;9.50;;;7.20;;
14883;SDS011;7534;50.762;7.000;2024-01-30T14:22:58;9.63;;;6.07;;
14883;SDS011;7534;50.762;7.000;2024-01-30T14:25:24;10.18;;;6.78;;
14883;SDS011;7534;50.762;7.000;2024-01-30T14:27:51;8.23;;;7.30;;
14883;SDS011;7534;50.762;7.000;2024-01-30T14:30:19;10.93;;;6.55;;
14883;SDS011;7534;50.762;7.000;2024-01-30T14:32:45;11.63;;;6.87;;
14883;SDS011;7534;50.762;7.000;2024-01-30T14:35:12;10.43;;;6.87;;
14883;SDS011;7534;50.762;7.000;2024-01-30T14:37:38;7.82;;;6.70;;
14883;SDS011;7534;50.762;7.000;2024-01-30T14:40:06;11.27;;;7.40;;
14883;SDS011;7534;50.762;7.000;2024-01-30T14:42:32;8.65;;;6.50;;